Monaville, Texas
Current Conditions -  °F | °C
As of 5:15 AM on Sunday 23 Nov 2014 (Local Time) from K11R Reporting Station
Broken Clouds Broken Clouds  
Wind Chill: 61°   Ceiling: 1500
Heat Index: 61°   Visibility: 10mi
Dew Point: 60°   Wind: 6mph
Humidity: 97%   Direction: 250°WSW
Pressure: 29.66"   Gusts: NA
Location:  30.0877°N, 96.0805°W
Report Text: K11R 231115Z AUTO 25005KT 10SM BKN015 BKN020 16/16 A2966 RMK AO2 T01600155
Loading
Personal Weather Stations






























Interactive Weather Map New forecast layout! Learn more

10-Day Weather Forecast

Advertisements
Track Severe Weather on mobile